sensor_id;sensor_type;location;lat;lon;timestamp;P1;durP1;ratioP1;P2;durP2;ratioP2
1218;SDS011;599;51.494;6.670;2022-09-12T00:00:00;37.30;;;28.70;;
1218;SDS011;599;51.494;6.670;2022-09-12T00:02:36;40.38;;;29.60;;
1218;SDS011;599;51.494;6.670;2022-09-12T00:05:02;39.07;;;30.87;;
1218;SDS011;599;51.494;6.670;2022-09-12T00:07:29;38.53;;;32.45;;
1218;SDS011;599;51.494;6.670;2022-09-12T00:09:55;41.00;;;28.60;;
1218;SDS011;599;51.494;6.670;2022-09-12T00:12:21;42.03;;;31.23;;
1218;SDS011;599;51.494;6.670;2022-09-12T00:14:46;42.00;;;30.03;;
1218;SDS011;599;51.494;6.670;2022-09-12T00:17:12;39.90;;;31.67;;
1218;SDS011;599;51.494;6.670;2022-09-12T00:19:41;44.47;;;31.23;;
1218;SDS011;599;51.494;6.670;2022-09-12T00:22:07;45.77;;;33.33;;
1218;SDS011;599;51.494;6.670;2022-09-12T00:24:33;37.33;;;30.90;;
1218;SDS011;599;51.494;6.670;2022-09-12T00:26:59;36.03;;;29.47;;
1218;SDS011;599;51.494;6.670;2022-09-12T00:29:25;45.43;;;32.87;;
1218;SDS011;599;51.494;6.670;2022-09-12T00:31:51;50.80;;;31.70;;
1218;SDS011;599;51.494;6.670;2022-09-12T00:34:16;49.20;;;31.97;;
1218;SDS011;599;51.494;6.670;2022-09-12T00:36:42;43.50;;;32.63;;
1218;SDS011;599;51.494;6.670;2022-09-12T00:39:09;51.83;;;33.97;;
1218;SDS011;599;51.494;6.670;2022-09-12T00:41:42;39.35;;;31.02;;
1218;SDS011;599;51.494;6.670;2022-09-12T00:46:41;38.95;;;30.17;;
1218;SDS011;599;51.494;6.670;2022-09-12T00:54:50;63.00;;;37.22;;
1218;SDS011;599;51.494;6.670;2022-09-12T00:57:32;41.72;;;32.92;;
1218;SDS011;599;51.494;6.670;2022-09-12T01:00:09;42.42;;;30.60;;
1218;SDS011;599;51.494;6.670;2022-09-12T01:02:43;42.50;;;31.30;;
1218;SDS011;599;51.494;6.670;2022-09-12T01:05:33;45.83;;;32.92;;
1218;SDS011;599;51.494;6.670;2022-09-12T01:08:01;44.63;;;33.38;;
1218;SDS011;599;51.494;6.670;2022-09-12T01:10:29;46.53;;;33.13;;
1218;SDS011;599;51.494;6.670;2022-09-12T01:12:56;41.40;;;30.35;;
1218;SDS011;599;51.494;6.670;2022-09-12T01:15:22;55.73;;;32.53;;
1218;SDS011;599;51.494;6.670;2022-09-12T01:30:01;49.30;;;32.58;;
1218;SDS011;599;51.494;6.670;2022-09-12T01:39:03;47.88;;;33.70;;
1218;SDS011;599;51.494;6.670;2022-09-12T01:47:22;43.95;;;34.97;;
1218;SDS011;599;51.494;6.670;2022-09-12T01:50:12;42.45;;;31.90;;
1218;SDS011;599;51.494;6.670;2022-09-12T01:53:07;41.78;;;30.15;;
1218;SDS011;599;51.494;6.670;2022-09-12T01:55:50;40.08;;;28.17;;
1218;SDS011;599;51.494;6.670;2022-09-12T01:59:19;48.50;;;34.55;;
1218;SDS011;599;51.494;6.670;2022-09-12T02:02:14;46.88;;;31.33;;
1218;SDS011;599;51.494;6.670;2022-09-12T02:04:50;45.08;;;31.95;;
1218;SDS011;599;51.494;6.670;2022-09-12T02:07:42;45.65;;;32.55;;
1218;SDS011;599;51.494;6.670;2022-09-12T02:10:15;46.20;;;31.48;;
1218;SDS011;599;51.494;6.670;2022-09-12T02:12:51;42.85;;;32.65;;
1218;SDS011;599;51.494;6.670;2022-09-12T02:15:22;46.88;;;33.00;;
1218;SDS011;599;51.494;6.670;2022-09-12T02:18:02;39.53;;;31.33;;
1218;SDS011;599;51.494;6.670;2022-09-12T02:20:32;52.40;;;34.47;;
1218;SDS011;599;51.494;6.670;2022-09-12T02:23:02;48.53;;;33.95;;
1218;SDS011;599;51.494;6.670;2022-09-12T02:25:35;44.83;;;31.90;;
1218;SDS011;599;51.494;6.670;2022-09-12T02:28:08;47.00;;;34.33;;
1218;SDS011;599;51.494;6.670;2022-09-12T02:30:42;42.22;;;32.15;;
1218;SDS011;599;51.494;6.670;2022-09-12T02:33:22;41.53;;;31.52;;
1218;SDS011;599;51.494;6.670;2022-09-12T02:41:11;44.05;;;29.98;;
1218;SDS011;599;51.494;6.670;2022-09-12T02:43:41;47.88;;;31.30;;
1218;SDS011;599;51.494;6.670;2022-09-12T02:46:07;47.50;;;31.63;;
1218;SDS011;599;51.494;6.670;2022-09-12T02:48:40;43.70;;;31.17;;
1218;SDS011;599;51.494;6.670;2022-09-12T02:51:08;48.20;;;33.28;;
1218;SDS011;599;51.494;6.670;2022-09-12T02:53:35;41.03;;;30.35;;
1218;SDS011;599;51.494;6.670;2022-09-12T02:56:03;45.10;;;32.63;;
1218;SDS011;599;51.494;6.670;2022-09-12T02:58:42;43.38;;;31.05;;
1218;SDS011;599;51.494;6.670;2022-09-12T03:18:03;50.63;;;34.58;;
1218;SDS011;599;51.494;6.670;2022-09-12T03:26:15;55.03;;;34.30;;
1218;SDS011;599;51.494;6.670;2022-09-12T03:28:53;48.08;;;32.22;;
1218;SDS011;599;51.494;6.670;2022-09-12T03:31:21;50.92;;;35.00;;
1218;SDS011;599;51.494;6.670;2022-09-12T03:33:47;50.85;;;32.28;;
1218;SDS011;599;51.494;6.670;2022-09-12T03:36:20;50.20;;;33.60;;
1218;SDS011;599;51.494;6.670;2022-09-12T03:38:50;51.80;;;34.72;;
1218;SDS011;599;51.494;6.670;2022-09-12T03:41:16;55.47;;;34.00;;
1218;SDS011;599;51.494;6.670;2022-09-12T03:43:43;48.50;;;34.33;;
1218;SDS011;599;51.494;6.670;2022-09-12T03:46:09;48.47;;;33.13;;
1218;SDS011;599;51.494;6.670;2022-09-12T03:48:38;47.37;;;31.87;;
1218;SDS011;599;51.494;6.670;2022-09-12T03:51:06;48.15;;;33.45;;
1218;SDS011;599;51.494;6.670;2022-09-12T03:53:34;49.35;;;34.47;;
1218;SDS011;599;51.494;6.670;2022-09-12T03:56:04;47.78;;;33.25;;
1218;SDS011;599;51.494;6.670;2022-09-12T03:58:35;42.15;;;30.42;;
1218;SDS011;599;51.494;6.670;2022-09-12T04:01:08;43.53;;;30.70;;
1218;SDS011;599;51.494;6.670;2022-09-12T04:03:40;43.10;;;31.20;;
1218;SDS011;599;51.494;6.670;2022-09-12T04:06:08;47.42;;;33.50;;
1218;SDS011;599;51.494;6.670;2022-09-12T04:08:40;40.75;;;29.77;;
1218;SDS011;599;51.494;6.670;2022-09-12T04:11:09;45.28;;;32.28;;
1218;SDS011;599;51.494;6.670;2022-09-12T04:13:38;50.47;;;34.15;;
1218;SDS011;599;51.494;6.670;2022-09-12T04:16:06;48.13;;;32.30;;
1218;SDS011;599;51.494;6.670;2022-09-12T04:18:33;52.20;;;35.30;;
1218;SDS011;599;51.494;6.670;2022-09-12T04:21:07;52.35;;;35.35;;
1218;SDS011;599;51.494;6.670;2022-09-12T04:23:36;51.47;;;35.67;;
1218;SDS011;599;51.494;6.670;2022-09-12T04:26:03;49.07;;;33.07;;
1218;SDS011;599;51.494;6.670;2022-09-12T04:28:34;57.33;;;34.80;;
1218;SDS011;599;51.494;6.670;2022-09-12T04:31:02;57.10;;;35.53;;
1218;SDS011;599;51.494;6.670;2022-09-12T04:33:31;55.97;;;35.47;;
1218;SDS011;599;51.494;6.670;2022-09-12T04:36:05;51.45;;;33.47;;
1218;SDS011;599;51.494;6.670;2022-09-12T04:38:34;54.50;;;35.92;;
1218;SDS011;599;51.494;6.670;2022-09-12T04:41:08;51.83;;;32.35;;
1218;SDS011;599;51.494;6.670;2022-09-12T04:43:40;47.45;;;33.05;;
1218;SDS011;599;51.494;6.670;2022-09-12T04:46:07;54.13;;;34.08;;
1218;SDS011;599;51.494;6.670;2022-09-12T04:48:35;51.70;;;32.65;;
1218;SDS011;599;51.494;6.670;2022-09-12T04:51:20;47.72;;;32.03;;
1218;SDS011;599;51.494;6.670;2022-09-12T04:53:53;47.90;;;32.00;;
1218;SDS011;599;51.494;6.670;2022-09-12T04:56:23;52.25;;;33.60;;
1218;SDS011;599;51.494;6.670;2022-09-12T04:58:50;63.13;;;36.22;;
1218;SDS011;599;51.494;6.670;2022-09-12T05:01:18;53.03;;;32.30;;
1218;SDS011;599;51.494;6.670;2022-09-12T05:03:47;60.95;;;37.28;;
1218;SDS011;599;51.494;6.670;2022-09-12T05:06:15;53.35;;;33.33;;
1218;SDS011;599;51.494;6.670;2022-09-12T05:08:48;52.22;;;33.60;;
1218;SDS011;599;51.494;6.670;2022-09-12T05:11:16;51.65;;;31.80;;
1218;SDS011;599;51.494;6.670;2022-09-12T05:13:45;52.42;;;34.45;;
1218;SDS011;599;51.494;6.670;2022-09-12T05:16:11;55.28;;;34.10;;
1218;SDS011;599;51.494;6.670;2022-09-12T05:18:39;54.45;;;34.30;;
1218;SDS011;599;51.494;6.670;2022-09-12T05:21:06;62.47;;;36.63;;
1218;SDS011;599;51.494;6.670;2022-09-12T05:23:36;50.58;;;34.25;;
1218;SDS011;599;51.494;6.670;2022-09-12T05:26:02;55.07;;;35.90;;
1218;SDS011;599;51.494;6.670;2022-09-12T05:28:31;58.42;;;35.28;;
1218;SDS011;599;51.494;6.670;2022-09-12T05:31:02;50.67;;;32.55;;
1218;SDS011;599;51.494;6.670;2022-09-12T05:33:28;55.83;;;34.30;;
1218;SDS011;599;51.494;6.670;2022-09-12T05:35:55;45.47;;;33.15;;
1218;SDS011;599;51.494;6.670;2022-09-12T05:38:21;46.78;;;32.60;;
1218;SDS011;599;51.494;6.670;2022-09-12T05:43:36;45.40;;;31.45;;
1218;SDS011;599;51.494;6.670;2022-09-12T05:46:13;39.33;;;31.08;;
1218;SDS011;599;51.494;6.670;2022-09-12T05:48:44;40.95;;;28.30;;
1218;SDS011;599;51.494;6.670;2022-09-12T05:51:12;35.03;;;28.30;;
1218;SDS011;599;51.494;6.670;2022-09-12T05:53:45;35.53;;;27.13;;
1218;SDS011;599;51.494;6.670;2022-09-12T05:56:16;34.47;;;26.55;;
1218;SDS011;599;51.494;6.670;2022-09-12T05:58:46;33.50;;;24.50;;
1218;SDS011;599;51.494;6.670;2022-09-12T06:01:24;35.35;;;23.75;;
1218;SDS011;599;51.494;6.670;2022-09-12T06:03:52;33.63;;;24.25;;
1218;SDS011;599;51.494;6.670;2022-09-12T06:06:22;27.95;;;22.88;;
1218;SDS011;599;51.494;6.670;2022-09-12T06:08:50;29.85;;;24.13;;
1218;SDS011;599;51.494;6.670;2022-09-12T06:11:22;33.20;;;22.98;;
1218;SDS011;599;51.494;6.670;2022-09-12T06:13:51;32.85;;;20.52;;
1218;SDS011;599;51.494;6.670;2022-09-12T06:16:18;29.23;;;22.30;;
1218;SDS011;599;51.494;6.670;2022-09-12T06:18:48;28.55;;;21.42;;
1218;SDS011;599;51.494;6.670;2022-09-12T06:21:21;33.47;;;21.17;;
1218;SDS011;599;51.494;6.670;2022-09-12T06:23:49;27.75;;;21.63;;
1218;SDS011;599;51.494;6.670;2022-09-12T06:26:16;29.30;;;22.80;;
1218;SDS011;599;51.494;6.670;2022-09-12T06:28:45;26.83;;;21.00;;
1218;SDS011;599;51.494;6.670;2022-09-12T06:31:13;30.55;;;21.10;;
1218;SDS011;599;51.494;6.670;2022-09-12T06:33:44;24.92;;;20.85;;
1218;SDS011;599;51.494;6.670;2022-09-12T06:36:58;25.27;;;20.38;;
1218;SDS011;599;51.494;6.670;2022-09-12T06:39:15;27.33;;;22.08;;
1218;SDS011;599;51.494;6.670;2022-09-12T06:41:47;28.30;;;21.45;;
1218;SDS011;599;51.494;6.670;2022-09-12T06:44:16;28.48;;;22.55;;
1218;SDS011;599;51.494;6.670;2022-09-12T06:47:25;27.70;;;23.63;;
1218;SDS011;599;51.494;6.670;2022-09-12T06:49:52;27.55;;;24.05;;
1218;SDS011;599;51.494;6.670;2022-09-12T06:52:18;30.40;;;22.25;;
1218;SDS011;599;51.494;6.670;2022-09-12T06:54:45;31.00;;;22.27;;
1218;SDS011;599;51.494;6.670;2022-09-12T06:57:12;33.38;;;21.65;;
1218;SDS011;599;51.494;6.670;2022-09-12T06:59:38;28.60;;;21.77;;
1218;SDS011;599;51.494;6.670;2022-09-12T07:02:04;26.90;;;21.50;;
1218;SDS011;599;51.494;6.670;2022-09-12T07:04:31;28.10;;;20.80;;
1218;SDS011;599;51.494;6.670;2022-09-12T07:07:05;23.60;;;18.73;;
1218;SDS011;599;51.494;6.670;2022-09-12T07:09:31;28.17;;;21.83;;
1218;SDS011;599;51.494;6.670;2022-09-12T07:12:01;30.40;;;21.27;;
1218;SDS011;599;51.494;6.670;2022-09-12T07:14:53;22.60;;;19.85;;
1218;SDS011;599;51.494;6.670;2022-09-12T07:17:20;23.20;;;19.88;;
1218;SDS011;599;51.494;6.670;2022-09-12T07:19:46;22.65;;;19.15;;
1218;SDS011;599;51.494;6.670;2022-09-12T07:22:13;22.17;;;19.42;;
1218;SDS011;599;51.494;6.670;2022-09-12T07:24:46;23.70;;;17.00;;
1218;SDS011;599;51.494;6.670;2022-09-12T07:27:13;20.10;;;17.05;;
1218;SDS011;599;51.494;6.670;2022-09-12T07:29:39;25.42;;;18.58;;
1218;SDS011;599;51.494;6.670;2022-09-12T07:32:06;22.23;;;17.85;;
1218;SDS011;599;51.494;6.670;2022-09-12T07:34:33;22.90;;;17.40;;
1218;SDS011;599;51.494;6.670;2022-09-12T07:37:00;24.95;;;17.17;;
1218;SDS011;599;51.494;6.670;2022-09-12T07:39:26;20.45;;;17.10;;
1218;SDS011;599;51.494;6.670;2022-09-12T07:41:56;25.73;;;15.88;;
1218;SDS011;599;51.494;6.670;2022-09-12T07:44:23;22.08;;;16.98;;
1218;SDS011;599;51.494;6.670;2022-09-12T07:46:51;20.80;;;16.50;;
1218;SDS011;599;51.494;6.670;2022-09-12T07:49:17;19.95;;;16.33;;
1218;SDS011;599;51.494;6.670;2022-09-12T07:51:44;19.75;;;16.27;;
1218;SDS011;599;51.494;6.670;2022-09-12T07:54:10;18.77;;;16.23;;
1218;SDS011;599;51.494;6.670;2022-09-12T07:56:37;19.63;;;17.20;;
1218;SDS011;599;51.494;6.670;2022-09-12T07:59:03;21.63;;;18.13;;
1218;SDS011;599;51.494;6.670;2022-09-12T08:01:36;21.57;;;18.57;;
1218;SDS011;599;51.494;6.670;2022-09-12T08:04:04;20.05;;;15.80;;
1218;SDS011;599;51.494;6.670;2022-09-12T08:06:33;22.67;;;18.85;;
1218;SDS011;599;51.494;6.670;2022-09-12T08:09:01;20.85;;;18.65;;
1218;SDS011;599;51.494;6.670;2022-09-12T08:11:29;22.23;;;17.45;;
1218;SDS011;599;51.494;6.670;2022-09-12T08:13:56;21.03;;;16.97;;
1218;SDS011;599;51.494;6.670;2022-09-12T08:16:27;24.00;;;17.33;;
1218;SDS011;599;51.494;6.670;2022-09-12T08:18:55;24.23;;;19.00;;
1218;SDS011;599;51.494;6.670;2022-09-12T08:21:26;22.77;;;18.52;;
1218;SDS011;599;51.494;6.670;2022-09-12T08:24:06;23.87;;;17.87;;
1218;SDS011;599;51.494;6.670;2022-09-12T08:26:33;25.15;;;16.90;;
1218;SDS011;599;51.494;6.670;2022-09-12T08:29:00;21.27;;;17.55;;
1218;SDS011;599;51.494;6.670;2022-09-12T08:31:28;22.10;;;17.37;;
1218;SDS011;599;51.494;6.670;2022-09-12T08:34:02;24.10;;;17.13;;
1218;SDS011;599;51.494;6.670;2022-09-12T08:36:29;23.80;;;16.60;;
1218;SDS011;599;51.494;6.670;2022-09-12T08:38:58;19.00;;;17.03;;
1218;SDS011;599;51.494;6.670;2022-09-12T08:50:16;19.87;;;16.67;;
1218;SDS011;599;51.494;6.670;2022-09-12T08:58:22;21.47;;;16.73;;
1218;SDS011;599;51.494;6.670;2022-09-12T09:09:48;20.73;;;16.33;;
1218;SDS011;599;51.494;6.670;2022-09-12T09:12:40;30.57;;;17.17;;
1218;SDS011;599;51.494;6.670;2022-09-12T09:18:52;23.73;;;17.10;;
1218;SDS011;599;51.494;6.670;2022-09-12T09:21:28;21.90;;;16.90;;
1218;SDS011;599;51.494;6.670;2022-09-12T09:24:08;19.83;;;15.20;;
1218;SDS011;599;51.494;6.670;2022-09-12T09:26:45;30.10;;;18.23;;
1218;SDS011;599;51.494;6.670;2022-09-12T09:29:25;18.83;;;15.90;;
1218;SDS011;599;51.494;6.670;2022-09-12T09:31:58;17.17;;;14.20;;
1218;SDS011;599;51.494;6.670;2022-09-12T09:34:28;17.13;;;15.00;;
1218;SDS011;599;51.494;6.670;2022-09-12T09:45:40;16.87;;;13.67;;
1218;SDS011;599;51.494;6.670;2022-09-12T09:50:45;21.20;;;13.10;;
1218;SDS011;599;51.494;6.670;2022-09-12T09:56:08;14.10;;;11.27;;
1218;SDS011;599;51.494;6.670;2022-09-12T09:59:11;12.87;;;11.10;;
1218;SDS011;599;51.494;6.670;2022-09-12T10:01:53;15.80;;;11.50;;
1218;SDS011;599;51.494;6.670;2022-09-12T10:04:39;14.20;;;11.47;;
1218;SDS011;599;51.494;6.670;2022-09-12T10:07:17;14.43;;;10.37;;
1218;SDS011;599;51.494;6.670;2022-09-12T10:12:36;15.77;;;11.83;;
1218;SDS011;599;51.494;6.670;2022-09-12T10:15:04;14.07;;;11.47;;
1218;SDS011;599;51.494;6.670;2022-09-12T10:17:44;12.50;;;11.30;;
1218;SDS011;599;51.494;6.670;2022-09-12T10:23:01;13.57;;;10.13;;
1218;SDS011;599;51.494;6.670;2022-09-12T10:25:58;14.97;;;9.67;;
1218;SDS011;599;51.494;6.670;2022-09-12T10:28:38;11.47;;;10.23;;
1218;SDS011;599;51.494;6.670;2022-09-12T10:31:07;9.10;;;7.37;;
1218;SDS011;599;51.494;6.670;2022-09-12T10:33:42;12.03;;;9.60;;
1218;SDS011;599;51.494;6.670;2022-09-12T10:36:17;12.60;;;9.57;;
1218;SDS011;599;51.494;6.670;2022-09-12T10:38:54;11.13;;;9.23;;
1218;SDS011;599;51.494;6.670;2022-09-12T10:41:24;9.67;;;7.40;;
1218;SDS011;599;51.494;6.670;2022-09-12T10:43:51;16.53;;;9.67;;
1218;SDS011;599;51.494;6.670;2022-09-12T10:49:11;7.10;;;6.33;;
1218;SDS011;599;51.494;6.670;2022-09-12T10:51:45;6.60;;;5.93;;
1218;SDS011;599;51.494;6.670;2022-09-12T10:54:13;6.83;;;5.53;;
1218;SDS011;599;51.494;6.670;2022-09-12T10:56:51;8.10;;;5.53;;
1218;SDS011;599;51.494;6.670;2022-09-12T11:02:31;5.10;;;4.60;;
1218;SDS011;599;51.494;6.670;2022-09-12T11:14:27;5.27;;;4.87;;
1218;SDS011;599;51.494;6.670;2022-09-12T11:17:52;4.50;;;4.07;;
1218;SDS011;599;51.494;6.670;2022-09-12T11:22:51;6.50;;;4.50;;
1218;SDS011;599;51.494;6.670;2022-09-12T11:25:30;5.50;;;4.70;;
1218;SDS011;599;51.494;6.670;2022-09-12T11:33:45;4.23;;;3.83;;
1218;SDS011;599;51.494;6.670;2022-09-12T11:36:23;5.17;;;4.33;;
1218;SDS011;599;51.494;6.670;2022-09-12T11:39:14;4.73;;;4.33;;
1218;SDS011;599;51.494;6.670;2022-09-12T11:41:43;4.70;;;3.90;;
1218;SDS011;599;51.494;6.670;2022-09-12T11:44:19;6.10;;;3.77;;
1218;SDS011;599;51.494;6.670;2022-09-12T11:46:53;3.63;;;3.33;;
1218;SDS011;599;51.494;6.670;2022-09-12T11:52:09;5.40;;;3.30;;
1218;SDS011;599;51.494;6.670;2022-09-12T12:08:30;6.63;;;4.80;;
1218;SDS011;599;51.494;6.670;2022-09-12T12:11:03;8.17;;;5.07;;
1218;SDS011;599;51.494;6.670;2022-09-12T12:16:20;6.13;;;4.70;;
1218;SDS011;599;51.494;6.670;2022-09-12T12:21:40;5.53;;;4.47;;
1218;SDS011;599;51.494;6.670;2022-09-12T12:24:15;6.10;;;3.30;;
1218;SDS011;599;51.494;6.670;2022-09-12T12:27:00;4.40;;;4.00;;
1218;SDS011;599;51.494;6.670;2022-09-12T12:29:48;6.60;;;3.87;;
1218;SDS011;599;51.494;6.670;2022-09-12T12:32:18;5.13;;;3.70;;
1218;SDS011;599;51.494;6.670;2022-09-12T12:34:47;9.87;;;6.07;;
1218;SDS011;599;51.494;6.670;2022-09-12T12:44:59;6.37;;;3.80;;
1218;SDS011;599;51.494;6.670;2022-09-12T12:47:43;6.17;;;4.13;;
1218;SDS011;599;51.494;6.670;2022-09-12T12:50:22;5.27;;;3.27;;
1218;SDS011;599;51.494;6.670;2022-09-12T12:52:55;6.60;;;4.23;;
1218;SDS011;599;51.494;6.670;2022-09-12T12:55:32;5.40;;;3.77;;
1218;SDS011;599;51.494;6.670;2022-09-12T13:06:35;12.87;;;5.27;;
1218;SDS011;599;51.494;6.670;2022-09-12T13:12:03;5.80;;;4.80;;
1218;SDS011;599;51.494;6.670;2022-09-12T13:17:00;6.30;;;4.57;;
1218;SDS011;599;51.494;6.670;2022-09-12T13:19:34;7.67;;;4.53;;
1218;SDS011;599;51.494;6.670;2022-09-12T13:22:03;5.50;;;3.63;;
1218;SDS011;599;51.494;6.670;2022-09-12T13:24:33;6.70;;;3.63;;
1218;SDS011;599;51.494;6.670;2022-09-12T13:27:17;4.10;;;3.27;;
1218;SDS011;599;51.494;6.670;2022-09-12T13:29:49;6.97;;;2.87;;
1218;SDS011;599;51.494;6.670;2022-09-12T13:32:41;3.17;;;2.83;;
1218;SDS011;599;51.494;6.670;2022-09-12T13:35:20;4.40;;;3.33;;
1218;SDS011;599;51.494;6.670;2022-09-12T13:41:19;5.57;;;3.90;;
1218;SDS011;599;51.494;6.670;2022-09-12T13:44:02;3.80;;;3.37;;
1218;SDS011;599;51.494;6.670;2022-09-12T13:46:35;4.47;;;2.97;;
1218;SDS011;599;51.494;6.670;2022-09-12T13:49:05;4.37;;;2.93;;
1218;SDS011;599;51.494;6.670;2022-09-12T13:51:45;6.23;;;3.23;;
1218;SDS011;599;51.494;6.670;2022-09-12T13:54:31;4.33;;;3.30;;
1218;SDS011;599;51.494;6.670;2022-09-12T13:56:58;3.87;;;3.47;;
1218;SDS011;599;51.494;6.670;2022-09-12T13:59:24;4.30;;;3.67;;
1218;SDS011;599;51.494;6.670;2022-09-12T14:01:50;5.37;;;3.10;;
1218;SDS011;599;51.494;6.670;2022-09-12T14:04:21;9.60;;;4.03;;
1218;SDS011;599;51.494;6.670;2022-09-12T14:07:19;12.83;;;4.17;;
1218;SDS011;599;51.494;6.670;2022-09-12T14:09:54;7.03;;;4.23;;
1218;SDS011;599;51.494;6.670;2022-09-12T14:12:24;5.60;;;3.30;;
1218;SDS011;599;51.494;6.670;2022-09-12T14:15:26;8.53;;;4.83;;
1218;SDS011;599;51.494;6.670;2022-09-12T14:17:57;5.00;;;4.00;;
1218;SDS011;599;51.494;6.670;2022-09-12T14:20:26;11.67;;;5.37;;
1218;SDS011;599;51.494;6.670;2022-09-12T14:23:01;5.37;;;4.10;;
1218;SDS011;599;51.494;6.670;2022-09-12T14:25:46;5.00;;;3.33;;
1218;SDS011;599;51.494;6.670;2022-09-12T14:28:13;6.00;;;3.60;;
1218;SDS011;599;51.494;6.670;2022-09-12T14:30:57;8.20;;;4.50;;
1218;SDS011;599;51.494;6.670;2022-09-12T14:33:26;9.37;;;4.30;;
1218;SDS011;599;51.494;6.670;2022-09-12T14:39:14;4.67;;;4.17;;
1218;SDS011;599;51.494;6.670;2022-09-12T14:41:43;4.50;;;3.97;;
1218;SDS011;599;51.494;6.670;2022-09-12T14:44:15;3.93;;;3.63;;
1218;SDS011;599;51.494;6.670;2022-09-12T14:46:49;7.93;;;4.10;;
1218;SDS011;599;51.494;6.670;2022-09-12T14:49:20;5.17;;;4.07;;
1218;SDS011;599;51.494;6.670;2022-09-12T14:51:58;4.33;;;3.63;;
1218;SDS011;599;51.494;6.670;2022-09-12T14:56:54;5.73;;;3.90;;
1218;SDS011;599;51.494;6.670;2022-09-12T15:04:46;6.50;;;3.77;;
1218;SDS011;599;51.494;6.670;2022-09-12T15:12:48;4.07;;;3.63;;
1218;SDS011;599;51.494;6.670;2022-09-12T15:15:15;6.83;;;4.00;;
1218;SDS011;599;51.494;6.670;2022-09-12T15:17:45;6.93;;;4.03;;
1218;SDS011;599;51.494;6.670;2022-09-12T15:20:11;9.63;;;4.87;;
1218;SDS011;599;51.494;6.670;2022-09-12T15:22:38;4.70;;;4.20;;
1218;SDS011;599;51.494;6.670;2022-09-12T15:25:05;7.37;;;4.43;;
1218;SDS011;599;51.494;6.670;2022-09-12T15:27:34;6.27;;;4.90;;
1218;SDS011;599;51.494;6.670;2022-09-12T15:30:00;4.30;;;3.90;;
1218;SDS011;599;51.494;6.670;2022-09-12T15:32:27;4.20;;;3.80;;
1218;SDS011;599;51.494;6.670;2022-09-12T15:34:54;14.10;;;5.50;;
1218;SDS011;599;51.494;6.670;2022-09-12T15:37:20;5.27;;;4.10;;
1218;SDS011;599;51.494;6.670;2022-09-12T15:39:49;4.23;;;3.83;;
1218;SDS011;599;51.494;6.670;2022-09-12T15:42:15;5.20;;;4.10;;
1218;SDS011;599;51.494;6.670;2022-09-12T15:44:42;6.13;;;4.00;;
1218;SDS011;599;51.494;6.670;2022-09-12T15:47:09;4.50;;;4.10;;
1218;SDS011;599;51.494;6.670;2022-09-12T15:49:37;5.50;;;4.00;;
1218;SDS011;599;51.494;6.670;2022-09-12T15:52:04;4.47;;;3.97;;
1218;SDS011;599;51.494;6.670;2022-09-12T15:54:32;4.13;;;3.37;;
1218;SDS011;599;51.494;6.670;2022-09-12T15:57:01;5.53;;;3.50;;
1218;SDS011;599;51.494;6.670;2022-09-12T15:59:27;4.40;;;3.60;;
1218;SDS011;599;51.494;6.670;2022-09-12T16:01:53;4.27;;;3.87;;
1218;SDS011;599;51.494;6.670;2022-09-12T16:04:23;8.53;;;5.00;;
1218;SDS011;599;51.494;6.670;2022-09-12T16:06:51;7.13;;;4.80;;
1218;SDS011;599;51.494;6.670;2022-09-12T16:09:18;3.97;;;3.57;;
1218;SDS011;599;51.494;6.670;2022-09-12T16:11:45;7.20;;;4.00;;
1218;SDS011;599;51.494;6.670;2022-09-12T16:14:15;3.50;;;3.17;;
1218;SDS011;599;51.494;6.670;2022-09-12T16:16:42;4.77;;;3.60;;
1218;SDS011;599;51.494;6.670;2022-09-12T16:19:15;4.77;;;3.20;;
1218;SDS011;599;51.494;6.670;2022-09-12T16:21:41;5.10;;;3.40;;
1218;SDS011;599;51.494;6.670;2022-09-12T16:24:07;6.57;;;3.77;;
1218;SDS011;599;51.494;6.670;2022-09-12T16:26:33;4.80;;;4.13;;
1218;SDS011;599;51.494;6.670;2022-09-12T16:28:59;5.93;;;3.63;;
1218;SDS011;599;51.494;6.670;2022-09-12T16:31:25;5.10;;;3.43;;
1218;SDS011;599;51.494;6.670;2022-09-12T16:33:51;4.40;;;4.00;;
1218;SDS011;599;51.494;6.670;2022-09-12T16:36:18;6.93;;;3.60;;
1218;SDS011;599;51.494;6.670;2022-09-12T16:38:48;5.97;;;3.70;;
1218;SDS011;599;51.494;6.670;2022-09-12T16:41:16;6.17;;;4.27;;
1218;SDS011;599;51.494;6.670;2022-09-12T16:43:48;4.50;;;4.03;;
1218;SDS011;599;51.494;6.670;2022-09-12T16:46:14;4.67;;;3.20;;
1218;SDS011;599;51.494;6.670;2022-09-12T16:48:44;6.80;;;3.60;;
1218;SDS011;599;51.494;6.670;2022-09-12T16:51:16;5.37;;;3.80;;
1218;SDS011;599;51.494;6.670;2022-09-12T16:53:53;4.20;;;3.37;;
1218;SDS011;599;51.494;6.670;2022-09-12T16:56:23;4.30;;;3.90;;
1218;SDS011;599;51.494;6.670;2022-09-12T16:58:49;4.90;;;3.70;;
1218;SDS011;599;51.494;6.670;2022-09-12T17:01:16;3.97;;;3.37;;
1218;SDS011;599;51.494;6.670;2022-09-12T17:03:51;9.73;;;3.87;;
1218;SDS011;599;51.494;6.670;2022-09-12T17:06:21;3.90;;;3.50;;
1218;SDS011;599;51.494;6.670;2022-09-12T17:08:50;3.83;;;3.40;;
1218;SDS011;599;51.494;6.670;2022-09-12T17:11:19;4.30;;;3.90;;
1218;SDS011;599;51.494;6.670;2022-09-12T17:13:51;4.80;;;4.30;;
1218;SDS011;599;51.494;6.670;2022-09-12T17:16:19;5.73;;;4.10;;
1218;SDS011;599;51.494;6.670;2022-09-12T17:18:46;5.40;;;3.80;;
1218;SDS011;599;51.494;6.670;2022-09-12T17:21:12;4.90;;;4.00;;
1218;SDS011;599;51.494;6.670;2022-09-12T17:23:38;4.53;;;3.67;;
1218;SDS011;599;51.494;6.670;2022-09-12T17:26:06;4.50;;;4.10;;
1218;SDS011;599;51.494;6.670;2022-09-12T17:28:34;4.97;;;4.33;;
1218;SDS011;599;51.494;6.670;2022-09-12T17:31:03;10.77;;;4.80;;
1218;SDS011;599;51.494;6.670;2022-09-12T17:33:32;5.57;;;4.60;;
1218;SDS011;599;51.494;6.670;2022-09-12T17:35:59;9.13;;;4.97;;
1218;SDS011;599;51.494;6.670;2022-09-12T17:38:27;5.47;;;4.93;;
1218;SDS011;599;51.494;6.670;2022-09-12T17:41:03;4.83;;;4.43;;
1218;SDS011;599;51.494;6.670;2022-09-12T17:43:50;6.60;;;4.37;;
1218;SDS011;599;51.494;6.670;2022-09-12T17:46:21;5.80;;;5.10;;
1218;SDS011;599;51.494;6.670;2022-09-12T17:48:51;7.27;;;4.40;;
1218;SDS011;599;51.494;6.670;2022-09-12T17:51:19;5.17;;;4.30;;
1218;SDS011;599;51.494;6.670;2022-09-12T17:53:53;6.83;;;5.43;;
1218;SDS011;599;51.494;6.670;2022-09-12T17:56:25;7.37;;;5.27;;
1218;SDS011;599;51.494;6.670;2022-09-12T17:58:54;9.23;;;4.30;;
1218;SDS011;599;51.494;6.670;2022-09-12T18:01:23;9.57;;;6.00;;
1218;SDS011;599;51.494;6.670;2022-09-12T18:04:15;9.83;;;5.47;;
1218;SDS011;599;51.494;6.670;2022-09-12T18:06:45;5.50;;;5.00;;
1218;SDS011;599;51.494;6.670;2022-09-12T18:09:25;7.07;;;5.80;;
1218;SDS011;599;51.494;6.670;2022-09-12T18:11:52;9.63;;;5.50;;
1218;SDS011;599;51.494;6.670;2022-09-12T18:14:18;8.67;;;5.60;;
1218;SDS011;599;51.494;6.670;2022-09-12T18:16:45;9.30;;;5.93;;
1218;SDS011;599;51.494;6.670;2022-09-12T18:19:11;8.00;;;5.90;;
1218;SDS011;599;51.494;6.670;2022-09-12T18:21:38;6.27;;;5.67;;
1218;SDS011;599;51.494;6.670;2022-09-12T18:24:06;9.90;;;5.20;;
1218;SDS011;599;51.494;6.670;2022-09-12T18:26:36;9.40;;;5.73;;
1218;SDS011;599;51.494;6.670;2022-09-12T18:29:02;10.67;;;6.90;;
1218;SDS011;599;51.494;6.670;2022-09-12T18:31:29;8.30;;;6.00;;
1218;SDS011;599;51.494;6.670;2022-09-12T18:33:55;23.17;;;9.27;;
1218;SDS011;599;51.494;6.670;2022-09-12T18:36:23;8.63;;;5.60;;
1218;SDS011;599;51.494;6.670;2022-09-12T18:38:52;8.03;;;5.50;;
1218;SDS011;599;51.494;6.670;2022-09-12T18:41:20;8.73;;;5.50;;
1218;SDS011;599;51.494;6.670;2022-09-12T18:43:48;7.17;;;5.90;;
1218;SDS011;599;51.494;6.670;2022-09-12T18:46:18;8.57;;;6.23;;
1218;SDS011;599;51.494;6.670;2022-09-12T18:48:44;7.30;;;6.07;;
1218;SDS011;599;51.494;6.670;2022-09-12T18:51:22;6.70;;;6.10;;
1218;SDS011;599;51.494;6.670;2022-09-12T18:54:12;6.93;;;5.83;;
1218;SDS011;599;51.494;6.670;2022-09-12T18:56:41;7.80;;;6.20;;